Pittsburgh, Pennsylvania
Traffic Map
Current Weather Conditions
Pittsburgh, Pennsylvania
Clear
Clear

Feels Like: 0°
Wind Chill: Ceiling: Unl
Heat Index: Visibility: 10mi
Dew Point: -2° Wind: 9mph
Humidity: 70% Direction: 110° (ESE)
Pressure: 29.95in Gusts: 0mph
Raw Report DataKAGC 230153Z AUTO 11008KT 10SM CLR 03/M02 A2995 RMK AO2 SLP156 T00331017 TSNO
Traffic Incident Summary
Active as of:
Severity:
Category:
InformationThere was an issue retrieving the traffic information for this location. Please try a different location or try again shortly.
Advertisements
Track Severe Weather on mobile